Time;durP1;ratioP1;P1;durP2;ratioP2;P2;SDS_P1;SDS_P2;PMS_P1;PMS_P2;Temp;Humidity;BMP_temperature;BMP_pressure;BME280_temperature;BME280_humidity;BME280_pressure;Samples;Min_cycle;Max_cycle;Signal;HPM_P1;HPM_P2
2022/08/18 00:00:26;;;;;;;4.55;3.42;;;;;;;25.43;50.04;94812.00;5061970;28;20033;-56
2022/08/18 00:02:51;;;;;;;4.70;3.70;;;;;;;25.49;50.07;94811.91;5060540;28;20036;-57
2022/08/18 00:05:17;;;;;;;6.18;3.72;;;;;;;25.24;49.56;94756.00;5043606;28;20044;-55
2022/08/18 00:07:43;;;;;;;5.40;4.00;;;;;;;25.43;49.87;94792.16;5059787;28;20099;-56
2022/08/18 00:10:08;;;;;;;5.15;3.70;;;;;;;25.16;50.04;94766.09;5057681;28;20044;-56
2022/08/18 00:12:36;;;;;;;4.82;3.88;;;;;;;25.45;50.31;94808.75;5057467;28;20106;-54
2022/08/18 00:15:04;;;;;;;13.45;4.47;;;;;;;25.26;50.97;94794.47;5061397;28;20141;-55
2022/08/18 00:17:31;;;;;;;5.60;3.70;;;;;;;25.15;50.86;94786.47;5058445;28;20155;-56
2022/08/18 00:19:56;;;;;;;6.45;4.00;;;;;;;24.74;50.74;94724.66;5060846;28;20060;-55
2022/08/18 00:22:22;;;;;;;4.53;3.50;;;;;;;25.34;50.79;94815.19;5060017;28;20067;-55
2022/08/18 00:24:50;;;;;;;4.68;3.72;;;;;;;25.15;51.15;94791.22;5060418;28;20032;-55
2022/08/18 00:27:20;;;;;;;5.53;3.63;;;;;;;25.23;50.88;94795.53;5041570;28;20059;-56
2022/08/18 00:29:46;;;;;;;6.40;3.40;;;;;;;24.81;51.21;94741.16;5063835;28;20070;-57
2022/08/18 00:32:14;;;;;;;4.13;3.50;;;;;;;25.23;50.60;94803.75;5059720;28;20040;-53
2022/08/18 00:34:39;;;;;;;5.88;3.92;;;;;;;25.05;51.07;94781.97;5042319;28;20463;-53
2022/08/18 00:37:05;;;;;;;5.20;3.53;;;;;;;25.06;51.18;94800.56;5059313;28;20079;-56
2022/08/18 00:39:33;;;;;;;5.72;3.67;;;;;;;25.13;51.48;94810.16;5057017;28;20025;-56
2022/08/18 00:41:58;;;;;;;5.00;3.70;;;;;;;24.52;51.19;94714.16;5059017;28;20028;-56
2022/08/18 00:44:24;;;;;;;6.32;3.88;;;;;;;25.13;51.25;94816.34;5060879;28;20097;-55
2022/08/18 00:46:49;;;;;;;5.28;3.33;;;;;;;25.16;51.21;94815.28;5058748;28;20574;-55
2022/08/18 00:49:17;;;;;;;5.95;3.97;;;;;;;25.17;51.44;94816.78;5059601;28;20051;-56
2022/08/18 00:51:45;;;;;;;5.28;3.78;;;;;;;25.13;51.39;94821.81;5058527;28;20112;-53
2022/08/18 00:54:15;;;;;;;5.55;4.03;;;;;;;24.95;51.73;94811.69;5039751;28;20047;-54
2022/08/18 00:56:51;;;;;;;6.38;4.32;;;;;;;24.97;51.88;94803.69;5062014;28;20676;-56
2022/08/18 00:59:30;;;;;;;6.60;4.03;;;;;;;24.95;52.24;94822.59;5063014;28;20025;-57
2022/08/18 01:02:01;;;;;;;6.10;4.15;;;;;;;24.74;51.76;94801.13;5062048;28;20056;-55
2022/08/18 01:04:34;;;;;;;5.00;3.60;;;;;;;24.89;51.84;94819.22;5045016;28;20411;-59
2022/08/18 01:07:03;;;;;;;5.90;3.95;;;;;;;24.89;51.87;94830.16;5029979;28;20024;-55
2022/08/18 01:09:28;;;;;;;6.07;4.32;;;;;;;24.93;51.82;94830.59;5043392;28;20029;-56
2022/08/18 01:11:55;;;;;;;4.93;3.97;;;;;;;24.89;52.35;94818.50;5042508;28;20037;-56
2022/08/18 01:14:21;;;;;;;5.72;4.20;;;;;;;24.73;52.04;94788.75;5053943;28;20051;-53
2022/08/18 01:22:31;;;;;;;5.40;3.92;;;;;;;24.92;51.58;94823.66;5042508;28;20113;-56
2022/08/18 01:27:42;;;;;;;5.32;4.10;;;;;;;24.71;51.94;94797.47;5039842;28;20051;-57
2022/08/18 01:30:10;;;;;;;6.65;5.07;;;;;;;24.80;51.58;94831.81;5059736;28;20037;-56
2022/08/18 01:32:37;;;;;;;8.07;4.00;;;;;;;24.71;51.63;94796.72;5058496;28;20075;-55
2022/08/18 01:35:03;;;;;;;5.18;4.30;;;;;;;24.77;52.07;94819.19;5063650;28;20120;-55
2022/08/18 01:37:28;;;;;;;4.75;4.25;;;;;;;24.50;52.21;94787.66;5061184;28;20581;-56
2022/08/18 01:39:53;;;;;;;5.57;4.07;;;;;;;24.61;52.51;94817.50;5039736;28;20937;-56
2022/08/18 01:42:19;;;;;;;6.45;4.18;;;;;;;24.56;52.27;94796.50;5046011;28;20064;-54
2022/08/18 01:44:46;;;;;;;6.63;4.18;;;;;;;23.92;52.57;94712.44;5062603;28;20525;-56
2022/08/18 01:47:12;;;;;;;6.05;4.38;;;;;;;24.34;52.56;94775.03;5062697;28;20056;-57
2022/08/18 01:49:39;;;;;;;5.80;4.18;;;;;;;23.88;52.94;94712.75;5062470;28;21368;-56
2022/08/18 01:52:06;;;;;;;6.20;4.60;;;;;;;23.64;52.93;94667.75;5062328;28;20040;-54
2022/08/18 01:54:31;;;;;;;5.50;4.15;;;;;;;24.68;52.67;94808.69;5062516;28;20055;-55
2022/08/18 01:56:57;;;;;;;6.38;4.30;;;;;;;24.50;53.27;94809.50;5061705;28;20534;-56
2022/08/18 01:59:23;;;;;;;6.57;4.50;;;;;;;24.55;52.68;94816.88;5061946;28;20451;-56
2022/08/18 02:01:48;;;;;;;7.30;4.72;;;;;;;24.43;53.20;94819.03;5062207;28;20094;-56
2022/08/18 02:04:15;;;;;;;6.25;4.43;;;;;;;24.51;53.35;94810.97;5061551;28;20475;-57
2022/08/18 02:06:41;;;;;;;7.28;4.50;;;;;;;24.29;53.33;94789.47;5060921;28;20079;-56
2022/08/18 02:09:06;;;;;;;5.30;4.07;;;;;;;24.41;53.46;94818.09;5058504;28;20029;-54
2022/08/18 02:11:32;;;;;;;5.18;4.40;;;;;;;24.33;53.49;94811.03;5061217;28;20040;-56
2022/08/18 02:13:57;;;;;;;6.60;4.57;;;;;;;24.13;52.94;94781.53;5059521;28;20744;-56
2022/08/18 02:16:23;;;;;;;7.45;4.80;;;;;;;24.25;53.47;94821.78;5043534;28;20132;-56
2022/08/18 02:18:49;;;;;;;6.28;4.20;;;;;;;24.27;52.93;94805.63;5062307;28;20024;-56
2022/08/18 02:21:16;;;;;;;7.43;4.70;;;;;;;24.26;52.63;94795.22;5043890;28;20487;-53
2022/08/18 02:23:42;;;;;;;4.80;4.30;;;;;;;23.75;52.94;94719.38;5062072;28;20093;-55
2022/08/18 02:26:09;;;;;;;7.55;5.07;;;;;;;24.37;53.04;94812.19;5061805;28;20033;-56
2022/08/18 02:28:34;;;;;;;7.90;4.82;;;;;;;24.38;53.05;94813.69;5057436;28;20167;-57
2022/08/18 02:31:08;;;;;;;8.13;4.90;;;;;;;24.21;52.98;94796.03;5055568;28;20032;-55
2022/08/18 02:33:33;;;;;;;6.15;4.60;;;;;;;23.42;52.99;94692.56;5058254;28;20032;-58
2022/08/18 02:35:59;;;;;;;8.63;4.80;;;;;;;24.03;53.12;94767.53;5059278;28;20067;-56
2022/08/18 02:38:25;;;;;;;8.32;4.53;;;;;;;23.63;53.24;94707.16;5059204;28;20068;-53
2022/08/18 02:40:55;;;;;;;6.55;4.88;;;;;;;24.30;53.23;94812.03;5041854;28;20045;-54
2022/08/18 02:43:21;;;;;;;6.35;4.70;;;;;;;24.28;53.63;94809.81;5059602;28;20036;-52
2022/08/18 02:45:47;;;;;;;8.07;4.97;;;;;;;23.86;53.13;94731.59;5057202;28;20017;-53
2022/08/18 02:48:12;;;;;;;8.00;4.80;;;;;;;24.21;53.33;94809.69;5058631;28;20031;-55
2022/08/18 02:50:47;;;;;;;5.18;4.68;;;;;;;23.99;53.64;94780.75;5058206;28;20086;-53
2022/08/18 02:53:22;;;;;;;8.35;4.72;;;;;;;23.57;53.26;94711.94;5058154;28;20094;-56
2022/08/18 02:55:47;;;;;;;7.47;4.93;;;;;;;23.91;54.03;94793.50;5058281;28;20049;-54
2022/08/18 02:58:13;;;;;;;6.30;4.70;;;;;;;24.12;53.78;94824.44;5059109;28;20580;-57
2022/08/18 03:00:38;;;;;;;6.30;4.18;;;;;;;23.99;53.83;94799.84;5057977;28;20025;-56
2022/08/18 03:03:04;;;;;;;7.07;4.75;;;;;;;24.11;53.88;94822.22;5039988;28;20032;-56
2022/08/18 03:05:29;;;;;;;6.68;4.70;;;;;;;24.12;54.11;94821.72;5058265;28;20036;-55
2022/08/18 03:07:55;;;;;;;8.48;4.47;;;;;;;23.92;53.45;94789.53;5058597;28;20641;-56
2022/08/18 03:10:21;;;;;;;6.32;4.72;;;;;;;24.16;53.74;94824.88;5050571;28;20040;-54
2022/08/18 03:12:46;;;;;;;6.85;4.85;;;;;;;24.14;53.81;94819.22;5031774;28;20017;-54
2022/08/18 03:15:11;;;;;;;8.13;5.30;;;;;;;24.05;53.64;94797.78;5053148;28;20029;-54
2022/08/18 03:17:38;;;;;;;6.93;4.70;;;;;;;23.97;54.06;94796.88;5053779;28;20035;-55
2022/08/18 03:20:04;;;;;;;6.90;4.70;;;;;;;23.91;53.95;94815.31;5055480;28;20120;-55
2022/08/18 03:22:30;;;;;;;5.55;4.57;;;;;;;23.87;54.53;94825.81;5054615;28;20041;-55
2022/08/18 03:24:56;;;;;;;5.07;4.30;;;;;;;23.54;54.49;94753.84;5053820;28;20036;-55
2022/08/18 03:27:22;;;;;;;7.00;4.95;;;;;;;23.72;54.49;94802.22;5055877;28;20556;-55
2022/08/18 03:29:47;;;;;;;6.50;4.28;;;;;;;23.88;54.47;94821.84;5058221;28;20143;-55
2022/08/18 03:32:13;;;;;;;6.25;4.82;;;;;;;23.86;54.15;94813.41;5058865;28;20043;-55
2022/08/18 03:34:38;;;;;;;6.32;4.90;;;;;;;23.87;53.81;94814.91;5061112;28;20433;-56
2022/08/18 03:37:04;;;;;;;7.28;4.70;;;;;;;23.77;54.03;94820.50;5059690;28;20546;-55
2022/08/18 03:39:30;;;;;;;6.35;4.55;;;;;;;23.90;54.49;94830.22;5057173;28;20621;-55
2022/08/18 03:41:56;;;;;;;7.45;4.90;;;;;;;23.75;54.53;94795.72;5059592;28;20032;-55
2022/08/18 03:44:22;;;;;;;8.93;4.65;;;;;;;23.20;54.53;94730.28;5061164;28;20622;-56
2022/08/18 03:46:47;;;;;;;6.00;4.45;;;;;;;23.83;54.24;94807.53;5053172;28;20036;-56
2022/08/18 03:49:13;;;;;;;6.13;4.50;;;;;;;23.55;54.37;94777.16;5050326;28;20052;-54
2022/08/18 03:51:42;;;;;;;5.88;4.47;;;;;;;23.92;54.47;94838.63;5054718;28;20418;-57
2022/08/18 03:54:08;;;;;;;7.88;4.28;;;;;;;23.80;54.25;94819.47;5033595;28;20051;-54
2022/08/18 03:56:36;;;;;;;6.22;4.55;;;;;;;23.70;54.40;94804.72;5053483;28;20051;-54
2022/08/18 03:59:06;;;;;;;5.78;4.78;;;;;;;23.73;54.64;94809.16;5055681;28;20029;-56
2022/08/18 04:01:32;;;;;;;;;;;;;;;23.85;54.95;94837.75;5060801;28;20128;-55
2022/08/18 04:04:02;;;;;;;6.10;4.93;;;;;;;23.28;54.89;94764.63;5060739;28;19991;-56
2022/08/18 04:06:33;;;;;;;7.88;5.30;;;;;;;23.41;54.63;94789.22;5060351;28;20024;-55
2022/08/18 04:09:00;;;;;;;6.78;5.13;;;;;;;23.71;54.96;94825.31;5059915;28;20037;-54
2022/08/18 04:11:27;;;;;;;6.30;4.82;;;;;;;23.83;54.85;94848.44;5058803;28;20036;-54
2022/08/18 04:13:56;;;;;;;7.90;5.40;;;;;;;23.75;54.77;94839.34;5051036;28;20664;-53
2022/08/18 04:16:23;;;;;;;6.50;5.00;;;;;;;23.72;55.09;94840.38;5026091;28;20595;-56
2022/08/18 04:18:49;;;;;;;7.15;5.45;;;;;;;23.78;54.56;94849.22;5047596;28;20024;-56
2022/08/18 04:21:14;;;;;;;7.28;5.30;;;;;;;23.84;54.66;94863.53;5050080;28;20078;-56
2022/08/18 04:23:40;;;;;;;6.78;4.68;;;;;;;23.39;54.81;94808.06;5059056;28;20036;-56
2022/08/18 04:26:06;;;;;;;8.32;5.20;;;;;;;23.36;54.74;94779.13;5042890;28;20028;-56
2022/08/18 04:28:31;;;;;;;8.18;5.20;;;;;;;23.90;54.98;94862.97;5042677;28;20734;-55
2022/08/18 04:30:58;;;;;;;7.53;5.30;;;;;;;23.82;54.85;94857.88;5053001;28;20038;-54
2022/08/18 04:33:26;;;;;;;7.70;5.03;;;;;;;23.60;54.71;94812.53;5059979;28;20078;-62
2022/08/18 04:35:52;;;;;;;8.40;5.57;;;;;;;23.35;54.76;94750.41;5052090;28;20037;-55
2022/08/18 04:38:18;;;;;;;8.32;5.65;;;;;;;23.85;54.92;94832.28;5055950;28;20033;-55
2022/08/18 04:40:44;;;;;;;7.80;5.47;;;;;;;23.79;54.99;94818.00;5024616;28;20497;-54
2022/08/18 04:43:13;;;;;;;7.70;5.65;;;;;;;24.32;54.22;94870.31;5038678;28;20037;-55
2022/08/18 04:45:40;;;;;;;6.55;5.57;;;;;;;24.38;54.00;94857.34;5047730;28;20107;-53
2022/08/18 04:48:06;;;;;;;8.43;5.75;;;;;;;24.54;53.84;94875.44;5058152;28;20423;-54
2022/08/18 04:50:31;;;;;;;8.13;6.05;;;;;;;24.69;53.56;94870.97;5058462;28;20036;-54
2022/08/18 04:55:48;;;;;;;8.82;6.20;;;;;;;24.89;52.92;94873.88;5048106;28;20420;-55
2022/08/18 04:58:15;;;;;;;8.90;6.00;;;;;;;24.78;53.00;94853.47;5042905;28;20045;-54
2022/08/18 05:00:42;;;;;;;7.70;6.32;;;;;;;24.58;52.90;94821.28;5048999;28;20777;-55
2022/08/18 05:03:08;;;;;;;8.15;6.30;;;;;;;25.17;52.61;94876.13;5046391;28;20907;-55
2022/08/18 05:05:33;;;;;;;9.75;6.35;;;;;;;24.51;52.43;94778.19;5048128;28;20045;-52
2022/08/18 05:07:59;;;;;;;13.90;6.53;;;;;;;24.73;52.35;94797.66;5047748;28;20044;-55
2022/08/18 05:10:24;;;;;;;8.40;6.65;;;;;;;25.30;52.07;94881.63;5054055;28;20049;-55
2022/08/18 05:12:49;;;;;;;9.20;6.57;;;;;;;24.77;51.83;94770.03;5052915;28;20036;-55
2022/08/18 05:15:17;;;;;;;8.90;6.57;;;;;;;25.08;51.31;94809.00;5061561;28;20510;-57
2022/08/18 05:17:43;;;;;;;11.52;6.65;;;;;;;25.10;51.79;94822.84;5050811;28;20091;-53
2022/08/18 05:20:09;;;;;;;8.40;7.00;;;;;;;24.95;51.17;94789.81;5043911;28;20048;-53
2022/08/18 05:22:38;;;;;;;11.43;7.43;;;;;;;25.48;50.82;94867.84;5051921;28;20033;-53
2022/08/18 05:25:05;;;;;;;12.77;7.68;;;;;;;25.83;50.41;94893.53;5055022;28;20705;-54
2022/08/18 05:27:32;;;;;;;9.48;6.82;;;;;;;25.75;50.12;94863.88;5055276;28;20033;-55
2022/08/18 05:29:57;;;;;;;9.95;6.90;;;;;;;25.96;49.74;94890.78;5035561;28;20406;-55
2022/08/18 05:32:23;;;;;;;10.48;6.85;;;;;;;25.42;49.73;94798.88;5057137;28;20111;-54
2022/08/18 05:34:49;;;;;;;9.27;7.13;;;;;;;25.69;51.73;94838.63;5055156;28;20055;-55
2022/08/18 05:37:31;;;;;;;10.00;7.30;;;;;;;25.45;50.88;94814.94;5049599;28;20072;-54
2022/08/18 05:39:58;;;;;;;12.00;7.80;;;;;;;25.91;50.41;94866.97;5021966;28;20021;-53
2022/08/18 05:42:25;;;;;;;11.88;7.70;;;;;;;26.03;50.00;94868.22;5060082;28;20229;-55
2022/08/18 05:44:51;;;;;;;10.23;7.13;;;;;;;25.44;49.78;94779.94;5042424;28;20037;-56
2022/08/18 05:47:18;;;;;;;10.00;7.25;;;;;;;26.31;49.57;94895.78;5052595;28;20033;-55
2022/08/18 05:49:45;;;;;;;9.75;7.85;;;;;;;25.78;49.77;94814.28;5054050;28;20044;-53
2022/08/18 05:52:32;;;;;;;9.32;7.63;;;;;;;26.39;49.02;94891.84;5022627;28;20545;-54
2022/08/18 05:58:34;;;;;;;10.35;8.07;;;;;;;26.46;48.01;94877.50;5032086;28;20039;-57
2022/08/18 06:01:02;;;;;;;7.90;7.10;;;;;;;25.98;48.25;94810.91;5006445;28;20045;-55
2022/08/18 06:03:35;;;;;;;12.00;8.10;;;;;;;26.37;48.36;94863.53;5025378;28;20062;-54
2022/08/18 06:06:12;;;;;;;10.15;7.40;;;;;;;26.66;48.59;94895.22;5038042;28;20063;-55
2022/08/18 06:08:47;;;;;;;10.68;7.40;;;;;;;26.73;48.49;94889.09;5021049;28;20057;-54
2022/08/18 06:11:13;;;;;;;10.02;7.65;;;;;;;26.51;48.57;94856.72;5034453;28;20510;-53
2022/08/18 06:13:40;;;;;;;9.88;7.47;;;;;;;26.84;47.94;94887.53;5045698;28;20043;-53
2022/08/18 06:16:28;;;;;;;8.52;7.05;;;;;;;26.71;48.09;94872.44;5040395;28;20040;-54
2022/08/18 06:18:58;;;;;;;10.43;7.65;;;;;;;26.87;47.88;94894.66;5045446;28;20020;-54
2022/08/18 06:21:36;;;;;;;9.80;6.93;;;;;;;26.96;48.10;94891.50;5041745;28;20033;-55
2022/08/18 06:24:20;;;;;;;10.55;6.80;;;;;;;27.05;47.29;94888.28;5062079;28;20424;-54
2022/08/18 06:27:15;;;;;;;10.05;7.35;;;;;;;27.12;47.01;94892.38;5062156;28;20356;-55
2022/08/18 06:30:03;;;;;;;21.25;8.57;;;;;;;27.13;47.46;94889.09;5053475;28;20063;-56
2022/08/18 06:32:42;;;;;;;62.30;14.45;;;;;;;27.02;47.29;94894.84;5027567;28;20135;-56
2022/08/18 06:35:18;;;;;;;45.90;12.32;;;;;;;27.12;47.44;94892.38;5028223;28;20564;-56
2022/08/18 06:40:47;;;;;;;29.73;10.32;;;;;;;26.57;47.01;94810.75;5058729;28;20058;-56
2022/08/18 06:43:14;;;;;;;31.08;9.07;;;;;;;27.13;47.19;94900.06;5054407;28;20702;-56
2022/08/18 06:45:40;;;;;;;24.92;9.35;;;;;;;26.81;47.71;94888.59;5037330;28;20029;-57
2022/08/18 06:48:15;;;;;;;16.45;8.30;;;;;;;26.66;47.28;94834.94;5020211;28;20063;-54
2022/08/18 06:50:48;;;;;;;15.65;8.00;;;;;;;26.50;47.47;94822.38;5049478;28;20128;-53
2022/08/18 06:53:16;;;;;;;14.40;7.75;;;;;;;26.56;47.99;94825.72;5035177;28;20515;-56
2022/08/18 06:55:44;;;;;;;21.25;8.30;;;;;;;26.93;47.90;94880.88;5049398;28;20032;-54
2022/08/18 06:58:18;;;;;;;11.60;6.68;;;;;;;26.83;48.58;94877.84;5030847;28;20116;-54
2022/08/18 07:00:53;;;;;;;12.18;6.95;;;;;;;26.81;48.53;94874.88;5041432;28;20071;-55
2022/08/18 07:03:21;;;;;;;11.02;6.93;;;;;;;26.93;48.29;94870.63;5047033;28;20086;-56
2022/08/18 07:06:06;;;;;;;14.05;6.95;;;;;;;27.03;48.58;94873.66;5049792;28;20058;-55
2022/08/18 07:08:37;;;;;;;12.18;6.68;;;;;;;26.26;47.95;94756.97;5048204;28;20147;-56
2022/08/18 07:11:29;;;;;;;11.57;6.57;;;;;;;26.93;48.21;94859.66;5061046;28;21223;-56
2022/08/18 07:14:12;;;;;;;11.27;7.00;;;;;;;26.81;48.28;94836.53;5043860;28;20064;-52
2022/08/18 07:16:37;;;;;;;11.68;6.30;;;;;;;26.95;48.11;94850.91;5056332;28;20123;-56
2022/08/18 07:19:10;;;;;;;9.55;6.03;;;;;;;27.07;48.12;94858.34;5056287;28;20052;-54
2022/08/18 07:21:36;;;;;;;11.10;5.72;;;;;;;27.09;48.00;94861.28;5058788;28;20059;-54
2022/08/18 07:24:05;;;;;;;10.57;6.07;;;;;;;26.98;48.33;94855.31;5038183;28;20017;-55
2022/08/18 07:26:52;;;;;;;10.77;6.10;;;;;;;26.56;48.38;94809.28;5055177;28;20072;-55
2022/08/18 07:29:17;;;;;;;10.40;6.57;;;;;;;26.77;48.86;94830.66;5037905;28;20094;-55
2022/08/18 07:31:47;;;;;;;8.85;5.68;;;;;;;26.87;48.22;94839.13;5055419;28;20058;-55
2022/08/18 07:34:19;;;;;;;9.32;6.07;;;;;;;27.01;48.59;94865.97;5024355;28;20052;-54
2022/08/18 07:37:13;;;;;;;8.55;5.68;;;;;;;26.95;48.72;94862.63;5056685;28;20032;-56
2022/08/18 07:39:51;;;;;;;10.63;5.70;;;;;;;27.01;48.71;94859.72;5047361;28;20538;-56
2022/08/18 07:42:38;;;;;;;9.02;5.97;;;;;;;26.86;48.96;94843.91;5048832;28;20043;-53
2022/08/18 07:45:08;;;;;;;13.02;6.03;;;;;;;26.88;49.24;94855.03;5043870;28;20040;-53
2022/08/18 07:47:44;;;;;;;8.75;5.55;;;;;;;26.74;48.99;94841.22;5052129;28;20041;-54
2022/08/18 07:50:10;;;;;;;9.70;5.50;;;;;;;26.95;49.12;94856.41;5023384;28;20076;-56
2022/08/18 07:53:01;;;;;;;11.60;5.60;;;;;;;26.93;48.71;94858.94;5026659;28;20039;-53
2022/08/18 07:55:31;;;;;;;12.27;6.10;;;;;;;26.77;48.87;94852.59;5051104;28;20052;-55
2022/08/18 07:58:14;;;;;;;;;;;;;;;26.83;49.27;94850.44;5031135;28;20107;-54
2022/08/18 08:00:48;;;;;;;11.13;5.95;;;;;;;26.87;49.06;94856.31;5037795;28;19956;-55
2022/08/18 08:03:50;;;;;;;11.27;5.95;;;;;;;26.83;49.05;94855.94;5041756;28;20098;-55
2022/08/18 08:06:32;;;;;;;9.02;5.45;;;;;;;26.88;49.10;94846.09;5047419;28;20052;-56
2022/08/18 08:09:09;;;;;;;9.70;5.95;;;;;;;26.81;48.83;94847.47;5047180;28;20040;-53
2022/08/18 08:12:09;;;;;;;8.35;5.32;;;;;;;26.47;49.34;94818.72;5046175;28;20033;-55
2022/08/18 08:14:41;;;;;;;11.52;5.32;;;;;;;26.80;49.04;94853.50;5025475;28;20059;-59
2022/08/18 08:17:32;;;;;;;10.30;5.35;;;;;;;26.66;49.10;94827.47;5043172;28;20221;-56
2022/08/18 08:20:22;;;;;;;9.20;5.70;;;;;;;26.78;49.29;94848.56;5022574;28;20094;-55
2022/08/18 08:22:57;;;;;;;11.05;5.03;;;;;;;26.82;48.84;94859.94;5046214;28;20041;-57
2022/08/18 08:26:00;;;;;;;11.63;5.28;;;;;;;26.84;48.98;94846.41;5036209;28;20055;-53
2022/08/18 08:28:53;;;;;;;6.97;4.88;;;;;;;25.89;48.38;94710.09;5042560;28;20041;-53
2022/08/18 08:31:33;;;;;;;7.47;4.97;;;;;;;26.80;48.71;94851.50;5021743;28;20049;-56
2022/08/18 08:34:34;;;;;;;6.93;5.30;;;;;;;26.85;48.69;94853.38;5040343;28;20534;-56
2022/08/18 08:37:04;;;;;;;7.28;4.97;;;;;;;26.71;48.50;94831.31;4970857;28;20119;-56
2022/08/18 08:39:46;;;;;;;7.30;5.00;;;;;;;26.50;48.77;94811.41;5050261;28;20530;-56
2022/08/18 08:42:15;;;;;;;6.32;4.93;;;;;;;26.80;48.60;94846.03;5041446;28;20128;-57
2022/08/18 08:44:50;;;;;;;7.50;5.07;;;;;;;26.67;48.63;94820.00;5030463;28;20036;-56
2022/08/18 08:47:25;;;;;;;6.07;4.60;;;;;;;26.14;48.79;94742.06;5028886;28;20055;-56
2022/08/18 08:49:56;;;;;;;7.00;5.13;;;;;;;26.81;48.38;94831.03;5024560;28;20041;-56
2022/08/18 08:52:25;;;;;;;6.25;4.90;;;;;;;26.75;48.90;94820.78;5025949;28;20077;-54
2022/08/18 08:54:52;;;;;;;6.10;4.50;;;;;;;26.71;48.77;94821.13;5038449;28;20491;-54
2022/08/18 08:57:18;;;;;;;6.00;5.13;;;;;;;26.46;48.48;94783.66;5035545;28;20289;-56
2022/08/18 08:59:46;;;;;;;6.20;4.65;;;;;;;26.83;48.30;94839.47;5040547;28;20747;-55
2022/08/18 09:02:36;;;;;;;7.75;4.47;;;;;;;26.93;47.54;94847.97;5024906;28;20041;-53
2022/08/18 09:05:26;;;;;;;5.60;4.20;;;;;;;26.71;47.37;94787.50;5049993;28;20045;-53
2022/08/18 09:08:14;;;;;;;5.03;3.92;;;;;;;27.04;47.41;94826.53;5042799;28;20119;-55
2022/08/18 09:10:48;;;;;;;6.13;4.43;;;;;;;26.96;47.19;94814.75;5041099;28;20044;-53
2022/08/18 09:13:41;;;;;;;5.55;4.10;;;;;;;27.27;47.43;94832.88;5039508;28;20078;-56
2022/08/18 09:16:13;;;;;;;6.18;4.00;;;;;;;27.27;46.47;94825.38;5058881;28;20052;-58
2022/08/18 09:18:44;;;;;;;6.90;4.13;;;;;;;27.40;47.30;94824.56;5060328;28;20021;-55
2022/08/18 09:21:39;;;;;;;5.50;4.40;;;;;;;27.50;46.30;94814.56;5062499;28;20094;-56
2022/08/18 09:24:19;;;;;;;5.47;4.00;;;;;;;27.51;47.32;94824.28;5062108;28;20064;-56
2022/08/18 09:26:49;;;;;;;6.63;4.60;;;;;;;27.61;46.96;94822.47;5062714;28;20064;-58
2022/08/18 09:29:24;;;;;;;6.50;4.30;;;;;;;27.26;46.70;94755.38;5052763;28;20705;-57
2022/08/18 09:32:18;;;;;;;6.38;4.05;;;;;;;27.76;46.51;94813.03;5023288;28;20033;-57
2022/08/18 09:35:02;;;;;;;5.43;4.15;;;;;;;27.83;45.96;94817.09;5037673;28;20044;-56
2022/08/18 09:37:45;;;;;;;7.50;4.07;;;;;;;28.00;45.56;94798.84;5041812;28;20060;-58
2022/08/18 09:43:32;;;;;;;8.38;4.53;;;;;;;27.75;44.87;94745.69;5017772;28;20031;-57
2022/08/18 09:45:59;;;;;;;5.97;4.00;;;;;;;28.09;44.19;94773.66;5024477;28;20027;-54
2022/08/18 09:48:35;;;;;;;6.55;3.97;;;;;;;27.43;42.86;94680.84;5041459;28;20025;-55
2022/08/18 09:51:17;;;;;;;6.20;3.88;;;;;;;28.20;42.77;94800.75;5026117;28;20044;-55
2022/08/18 09:53:46;;;;;;;6.80;4.07;;;;;;;28.44;42.48;94795.47;5043438;28;20043;-56
2022/08/18 09:56:12;;;;;;;5.17;3.83;;;;;;;28.41;42.22;94771.13;5033169;28;20987;-57
2022/08/18 09:58:49;;;;;;;5.82;4.00;;;;;;;28.63;41.96;94781.41;5042528;28;20033;-56
2022/08/18 10:01:21;;;;;;;6.05;4.25;;;;;;;28.63;42.28;94781.41;5024617;28;20048;-56
2022/08/18 10:04:19;;;;;;;4.47;3.97;;;;;;;28.67;42.71;94773.53;5026800;28;20068;-56
2022/08/18 10:06:45;;;;;;;7.55;4.57;;;;;;;28.29;42.51;94704.09;5036770;28;20025;-55
2022/08/18 10:09:30;;;;;;;6.43;4.10;;;;;;;28.89;41.70;94777.03;5006277;28;20021;-56
2022/08/18 10:11:56;;;;;;;6.07;3.75;;;;;;;28.95;41.74;94774.84;5034054;28;20029;-55
2022/08/18 10:14:38;;;;;;;6.28;4.00;;;;;;;28.67;42.30;94737.81;5039306;28;20094;-56
2022/08/18 10:17:09;;;;;;;6.82;4.03;;;;;;;28.94;42.22;94770.59;5026941;28;20051;-56
2022/08/18 10:19:56;;;;;;;7.03;4.20;;;;;;;29.17;40.69;94765.78;5045710;28;20039;-55
2022/08/18 10:22:39;;;;;;;8.55;4.15;;;;;;;29.20;40.45;94767.44;5044693;28;20065;-55
2022/08/18 10:25:08;;;;;;;4.88;3.60;;;;;;;28.73;40.89;94704.09;5025535;28;20045;-56
2022/08/18 10:28:04;;;;;;;6.05;3.78;;;;;;;29.26;40.44;94765.97;5038356;28;20025;-54
2022/08/18 10:30:32;;;;;;;5.25;4.22;;;;;;;29.25;40.89;94758.28;5054794;28;20097;-56
2022/08/18 10:32:59;;;;;;;5.60;3.97;;;;;;;29.00;40.67;94705.16;5053635;28;20041;-56
2022/08/18 10:35:36;;;;;;;6.10;4.30;;;;;;;29.34;40.70;94752.19;5061621;28;20052;-53
2022/08/18 10:38:16;;;;;;;5.10;4.13;;;;;;;29.37;40.64;94759.34;5057099;28;20219;-56
2022/08/18 10:40:42;;;;;;;5.57;4.00;;;;;;;28.90;40.52;94682.25;5042901;28;20059;-55
2022/08/18 10:43:17;;;;;;;6.53;4.45;;;;;;;29.11;40.30;94710.25;5044265;28;20137;-57
2022/08/18 10:45:48;;;;;;;5.75;4.00;;;;;;;29.18;40.07;94709.50;5037505;28;20522;-53
2022/08/18 10:48:28;;;;;;;5.55;3.78;;;;;;;29.48;40.48;94742.44;5042268;28;20533;-56
2022/08/18 10:51:12;;;;;;;5.20;4.07;;;;;;;29.43;40.29;94746.88;5058970;28;20511;-57
2022/08/18 10:53:51;;;;;;;4.20;3.60;;;;;;;29.43;39.94;94735.09;5029439;28;20032;-54
2022/08/18 10:56:19;;;;;;;;;;;;;;;29.46;39.97;94745.00;5058269;28;20124;-57
2022/08/18 10:58:56;;;;;;;5.07;3.70;;;;;;;28.79;39.84;94655.16;5062046;28;20441;-56
2022/08/18 11:01:34;;;;;;;5.70;3.58;;;;;;;29.17;40.47;94735.53;5044261;28;20033;-58
2022/08/18 11:04:00;;;;;;;6.43;3.80;;;;;;;29.27;40.21;94728.22;5062710;28;20043;-57
2022/08/18 11:06:25;;;;;;;5.07;3.50;;;;;;;28.45;40.92;94640.34;5059721;28;20041;-59
2022/08/18 11:08:54;;;;;;;5.30;3.63;;;;;;;28.33;40.22;94611.06;5061421;28;20052;-57
2022/08/18 11:11:22;;;;;;;4.88;3.70;;;;;;;28.94;41.13;94690.88;5042359;28;20028;-58
2022/08/18 11:14:30;;;;;;;3.80;3.10;;;;;;;29.04;40.97;94713.75;5027795;28;20048;-59
2022/08/18 11:17:14;;;;;;;5.05;3.50;;;;;;;29.00;40.18;94721.66;5009398;28;20079;-54
2022/08/18 11:19:41;;;;;;;5.22;3.80;;;;;;;28.75;41.14;94690.53;5050285;28;20045;-58
2022/08/18 11:22:19;;;;;;;4.70;3.35;;;;;;;28.77;40.67;94709.22;5053517;28;20032;-56
2022/08/18 11:24:45;;;;;;;4.65;3.35;;;;;;;28.69;40.66;94689.25;5040545;28;20484;-56
2022/08/18 11:27:21;;;;;;;4.85;3.30;;;;;;;28.70;40.93;94698.22;5053408;28;20032;-55
2022/08/18 11:29:46;;;;;;;4.38;3.42;;;;;;;28.05;40.58;94603.00;5047845;28;20071;-57
2022/08/18 11:32:25;;;;;;;4.50;3.47;;;;;;;28.61;41.42;94712.50;5058988;28;20574;-55
2022/08/18 11:35:12;;;;;;;4.63;3.80;;;;;;;28.81;40.40;94726.81;5030938;28;20044;-57
2022/08/18 11:37:49;;;;;;;5.05;3.47;;;;;;;28.76;41.26;94714.00;5056275;28;20041;-58
2022/08/18 11:40:17;;;;;;;5.15;3.50;;;;;;;28.72;40.93;94721.88;5061512;28;20064;-54
2022/08/18 11:43:07;;;;;;;6.95;3.95;;;;;;;28.39;40.95;94674.81;5060346;28;20530;-58
2022/08/18 11:45:35;;;;;;;4.10;3.70;;;;;;;28.65;40.87;94719.09;5033931;28;20032;-57
2022/08/18 11:48:21;;;;;;;4.93;3.70;;;;;;;28.67;41.13;94715.81;5042904;28;20542;-57
2022/08/18 11:51:00;;;;;;;5.20;3.25;;;;;;;28.67;41.63;94715.81;5060706;28;20072;-54
2022/08/18 11:53:32;;;;;;;4.63;3.70;;;;;;;28.64;41.50;94711.41;5060889;28;20041;-58
2022/08/18 11:56:04;;;;;;;5.35;3.70;;;;;;;28.50;41.02;94685.41;5060033;28;20673;-58
2022/08/18 11:58:46;;;;;;;6.43;3.85;;;;;;;28.70;41.23;94698.22;5043494;28;20535;-58
2022/08/18 12:01:38;;;;;;;4.07;3.65;;;;;;;28.67;40.63;94694.59;5059280;28;20040;-57
2022/08/18 12:04:13;;;;;;;4.65;3.70;;;;;;;28.61;41.23;94690.53;5061305;28;20044;-58
2022/08/18 12:06:50;;;;;;;4.50;3.28;;;;;;;28.61;40.58;94690.53;5056194;28;20437;-62
2022/08/18 12:09:20;;;;;;;4.22;3.53;;;;;;;28.58;40.94;94697.88;5044957;28;20080;-57
2022/08/18 12:11:49;;;;;;;;;;;;;;;28.65;41.12;94682.66;5040816;28;20525;-54
2022/08/18 12:14:23;;;;;;;4.60;3.22;;;;;;;28.57;40.33;94679.19;5040624;28;20545;-57